createdAt,value
2019-05-23T00:00:30.572Z,8.00
2019-05-23T00:03:19.527Z,8.00
2019-05-23T00:06:08.705Z,8.00
2019-05-23T00:08:57.396Z,8.00
2019-05-23T00:11:32.666Z,8.10
2019-05-23T00:14:20.323Z,8.00
2019-05-23T00:16:51.848Z,8.00
2019-05-23T00:19:21.880Z,8.00
2019-05-23T00:21:53.161Z,8.10
2019-05-23T00:24:24.101Z,8.10
2019-05-23T00:26:54.657Z,8.10
2019-05-23T00:29:25.911Z,8.10
2019-05-23T00:31:57.272Z,8.10
2019-05-23T00:34:27.418Z,8.10
2019-05-23T00:36:57.603Z,8.10
2019-05-23T00:39:28.928Z,8.10
2019-05-23T00:42:00.181Z,8.10
2019-05-23T00:44:30.479Z,8.10
2019-05-23T00:47:00.172Z,8.20
2019-05-23T00:49:30.709Z,8.20
2019-05-23T00:52:00.384Z,8.20
2019-05-23T00:54:30.895Z,8.20
2019-05-23T00:57:00.787Z,8.20
2019-05-23T00:59:30.991Z,8.30
2019-05-23T01:02:00.707Z,8.30
2019-05-23T01:04:31.406Z,8.20
2019-05-23T01:07:01.085Z,8.30
2019-05-23T01:09:31.284Z,8.30
2019-05-23T01:12:02.300Z,8.30
2019-05-23T01:14:33.042Z,8.30
2019-05-23T01:17:04.080Z,8.20
2019-05-23T01:19:34.629Z,8.20
2019-05-23T01:22:14.779Z,8.20
2019-05-23T01:24:46.143Z,8.20
2019-05-23T01:27:15.731Z,8.10
2019-05-23T01:29:49.957Z,8.10
2019-05-23T01:32:20.691Z,8.10
2019-05-23T01:34:51.039Z,8.10
2019-05-23T01:37:20.870Z,8.10
2019-05-23T01:39:50.960Z,8.10
2019-05-23T01:42:22.337Z,8.00
2019-05-23T01:44:55.083Z,8.00
2019-05-23T01:47:24.508Z,7.90
2019-05-23T01:49:55.304Z,7.90
2019-05-23T01:52:25.092Z,7.90
2019-05-23T01:54:54.603Z,7.90
2019-05-23T01:57:24.766Z,7.80
2019-05-23T02:00:09.139Z,7.80
2019-05-23T02:02:28.486Z,7.80
2019-05-23T02:04:58.517Z,7.80
2019-05-23T02:07:30.174Z,7.70
2019-05-23T02:10:00.362Z,7.80
2019-05-23T02:12:31.011Z,7.70
2019-05-23T02:15:00.515Z,7.80
2019-05-23T02:17:30.321Z,7.70
2019-05-23T02:20:01.644Z,7.70
2019-05-23T02:22:31.300Z,7.70
2019-05-23T02:25:01.759Z,7.70
2019-05-23T02:27:33.110Z,7.70
2019-05-23T02:30:02.744Z,7.70
2019-05-23T02:32:34.035Z,7.60
2019-05-23T02:35:05.691Z,7.60
2019-05-23T02:37:40.153Z,7.60
2019-05-23T02:40:14.776Z,7.50
2019-05-23T02:43:01.105Z,7.50
2019-05-23T02:45:33.935Z,7.50
2019-05-23T02:48:05.577Z,7.50
2019-05-23T02:50:46.926Z,7.50
2019-05-23T02:53:17.891Z,7.50
2019-05-23T02:55:50.032Z,7.50
2019-05-23T02:58:33.539Z,7.40
2019-05-23T03:01:22.782Z,7.50
2019-05-23T03:03:54.497Z,7.50
2019-05-23T03:06:25.054Z,7.50
2019-05-23T03:08:54.755Z,7.50
2019-05-23T03:11:28.346Z,7.40
2019-05-23T03:14:02.170Z,7.40
2019-05-23T03:16:35.895Z,7.40
2019-05-23T03:19:27.223Z,7.40
2019-05-23T03:21:58.637Z,7.50
2019-05-23T03:24:29.517Z,7.50
2019-05-23T03:27:05.080Z,7.40
2019-05-23T03:29:34.541Z,7.40
2019-05-23T03:32:05.970Z,7.40
2019-05-23T03:34:37.116Z,7.50
2019-05-23T03:37:06.991Z,7.50
2019-05-23T03:39:37.236Z,7.50
2019-05-23T03:42:08.409Z,7.60
2019-05-23T03:44:39.065Z,7.60
2019-05-23T03:47:10.164Z,7.70
2019-05-23T03:49:39.900Z,7.70
2019-05-23T03:52:11.348Z,7.80
2019-05-23T03:54:42.858Z,7.90
2019-05-23T03:57:13.163Z,7.90
2019-05-23T03:59:44.350Z,8.00
2019-05-23T04:02:15.901Z,8.10
2019-05-23T04:04:45.870Z,8.20
2019-05-23T04:07:17.574Z,8.20
2019-05-23T04:09:47.655Z,8.20
2019-05-23T04:12:17.621Z,8.20
2019-05-23T04:14:47.320Z,8.20
2019-05-23T04:17:18.335Z,8.10
2019-05-23T04:19:48.260Z,8.20
2019-05-23T04:22:17.790Z,8.20
2019-05-23T04:24:47.249Z,8.10
2019-05-23T04:27:16.968Z,8.20
2019-05-23T04:29:46.859Z,8.20
2019-05-23T04:32:16.382Z,8.30
2019-05-23T04:34:45.877Z,8.40
2019-05-23T04:37:15.339Z,8.50
2019-05-23T04:39:45.123Z,8.60
2019-05-23T04:42:14.897Z,8.70
2019-05-23T04:44:44.884Z,8.80
2019-05-23T04:47:14.573Z,9.00
2019-05-23T04:49:45.133Z,9.70
2019-05-23T04:52:15.040Z,10.80
2019-05-23T04:54:44.474Z,11.80
2019-05-23T04:57:14.624Z,13.00
2019-05-23T04:59:46.726Z,14.00
2019-05-23T05:02:26.553Z,15.00
2019-05-23T05:04:49.667Z,15.90
2019-05-23T05:07:19.305Z,16.80
2019-05-23T05:09:52.565Z,17.40
2019-05-23T05:12:23.225Z,18.00
2019-05-23T05:14:53.433Z,18.60
2019-05-23T05:17:23.141Z,19.40
2019-05-23T05:19:52.682Z,19.80
2019-05-23T05:22:22.984Z,20.70
2019-05-23T05:24:52.494Z,21.80
2019-05-23T05:27:22.535Z,22.50
2019-05-23T05:29:52.241Z,23.10
2019-05-23T05:32:23.192Z,23.90
2019-05-23T05:34:52.802Z,24.70
2019-05-23T05:37:22.275Z,25.20
2019-05-23T05:39:51.708Z,25.60
2019-05-23T05:42:21.475Z,26.40
2019-05-23T05:44:50.943Z,26.70
2019-05-23T05:47:20.720Z,26.90
2019-05-23T05:49:50.194Z,26.90
2019-05-23T05:52:19.701Z,27.00
2019-05-23T05:54:49.224Z,27.20
2019-05-23T05:57:19.142Z,27.60
2019-05-23T05:59:48.766Z,28.10
2019-05-23T06:02:19.754Z,28.30
2019-05-23T06:04:49.279Z,28.60
2019-05-23T06:07:23.632Z,29.20
2019-05-23T06:09:54.673Z,29.50
2019-05-23T06:12:24.124Z,29.40
2019-05-23T06:14:54.495Z,29.40
2019-05-23T06:17:24.156Z,29.80
2019-05-23T06:19:53.850Z,30.10
2019-05-23T06:22:24.382Z,30.20
2019-05-23T06:24:56.459Z,30.30
2019-05-23T06:27:25.197Z,30.40
2019-05-23T06:29:54.772Z,30.20
2019-05-23T06:32:25.911Z,30.30
2019-05-23T06:34:56.488Z,30.50
2019-05-23T06:37:26.543Z,30.80
2019-05-23T06:39:56.764Z,30.80
2019-05-23T06:42:26.512Z,31.00
2019-05-23T06:44:56.924Z,31.20
2019-05-23T06:47:26.512Z,31.10
2019-05-23T06:49:57.601Z,31.30
2019-05-23T06:52:27.696Z,31.60
2019-05-23T06:54:59.694Z,31.90
2019-05-23T06:57:28.619Z,31.80
2019-05-23T06:59:58.249Z,32.10
2019-05-23T07:02:31.875Z,32.40
2019-05-23T07:04:59.597Z,32.40
2019-05-23T07:07:29.280Z,32.40
2019-05-23T07:09:58.971Z,32.40
2019-05-23T07:12:28.925Z,32.60
2019-05-23T07:14:58.457Z,32.80
2019-05-23T07:17:28.658Z,32.90
2019-05-23T07:19:58.080Z,32.70
2019-05-23T07:22:27.944Z,32.30
2019-05-23T07:24:58.956Z,32.30
2019-05-23T07:27:29.629Z,32.30
2019-05-23T07:30:02.845Z,32.50
2019-05-23T07:32:32.355Z,32.50
2019-05-23T07:35:02.916Z,32.50
2019-05-23T07:37:32.436Z,32.60
2019-05-23T07:40:02.568Z,32.60
2019-05-23T07:42:32.683Z,32.20
2019-05-23T07:45:05.125Z,31.80
2019-05-23T07:47:34.728Z,31.10
2019-05-23T07:50:06.787Z,30.50
2019-05-23T07:52:37.097Z,30.20
2019-05-23T07:55:08.497Z,29.40
2019-05-23T07:57:39.725Z,28.20
2019-05-23T08:00:12.440Z,27.00
2019-05-23T08:02:44.452Z,26.10
2019-05-23T08:05:17.480Z,25.30
2019-05-23T08:07:47.912Z,24.50
2019-05-23T08:10:32.580Z,23.70
2019-05-23T08:12:49.218Z,23.20
2019-05-23T08:15:18.898Z,22.60
2019-05-23T08:17:49.996Z,22.10
2019-05-23T08:20:19.460Z,21.80
2019-05-23T08:22:48.935Z,21.60
2019-05-23T08:25:18.512Z,21.40
2019-05-23T08:27:48.809Z,21.10
2019-05-23T08:30:19.154Z,20.80
2019-05-23T08:32:49.432Z,20.60
2019-05-23T08:35:18.952Z,20.40
2019-05-23T08:37:48.580Z,20.10
2019-05-23T08:40:18.830Z,20.00
2019-05-23T08:42:49.840Z,19.90
2019-05-23T08:45:20.110Z,19.70
2019-05-23T08:47:49.718Z,19.80
2019-05-23T08:50:21.197Z,20.00
2019-05-23T08:52:50.705Z,20.00
2019-05-23T08:55:24.965Z,20.00
2019-05-23T08:57:57.952Z,20.10
2019-05-23T09:00:29.314Z,20.20
2019-05-23T09:03:00.055Z,20.20
2019-05-23T09:05:31.815Z,20.20
2019-05-23T09:08:01.963Z,20.00
2019-05-23T09:10:33.232Z,20.00
2019-05-23T09:13:02.740Z,20.00
2019-05-23T09:15:32.176Z,19.90
2019-05-23T09:18:01.970Z,20.00
2019-05-23T09:20:31.976Z,20.20
2019-05-23T09:23:01.964Z,20.30
2019-05-23T09:25:31.452Z,20.30
2019-05-23T09:28:01.340Z,20.40
2019-05-23T09:30:31.384Z,20.60
2019-05-23T09:33:04.186Z,20.70
2019-05-23T09:35:34.526Z,20.70
2019-05-23T09:38:04.622Z,20.90
2019-05-23T09:40:34.297Z,21.00
2019-05-23T09:43:05.309Z,21.00
2019-05-23T09:45:34.970Z,21.10
2019-05-23T09:48:04.689Z,21.00
2019-05-23T09:50:34.568Z,21.10
2019-05-23T09:53:04.271Z,21.10
2019-05-23T09:55:34.086Z,21.10
2019-05-23T09:58:03.727Z,21.20
2019-05-23T10:00:33.587Z,21.20
2019-05-23T10:03:03.112Z,21.20
2019-05-23T10:05:42.646Z,21.30
2019-05-23T10:08:04.342Z,21.10
2019-05-23T10:10:34.606Z,21.10
2019-05-23T10:13:05.743Z,21.20
2019-05-23T10:15:39.789Z,21.30
2019-05-23T10:18:11.285Z,21.40
2019-05-23T10:20:41.160Z,21.40
2019-05-23T10:23:10.789Z,21.40
2019-05-23T10:25:40.266Z,21.70
2019-05-23T10:28:09.880Z,21.90
2019-05-23T10:30:39.301Z,22.10
2019-05-23T10:33:11.951Z,22.20
2019-05-23T10:35:56.667Z,22.30
2019-05-23T10:38:13.242Z,22.10
2019-05-23T10:40:43.195Z,22.30
2019-05-23T10:43:12.814Z,22.40
2019-05-23T10:45:42.858Z,22.60
2019-05-23T10:48:13.918Z,22.60
2019-05-23T10:50:45.212Z,22.60
2019-05-23T10:53:14.906Z,22.90
2019-05-23T10:55:44.386Z,23.00
2019-05-23T10:58:15.490Z,23.00
2019-05-23T11:00:45.943Z,23.20
2019-05-23T11:03:15.996Z,23.20
2019-05-23T11:05:45.352Z,23.20
2019-05-23T11:08:15.219Z,23.30
2019-05-23T11:10:44.770Z,23.20
2019-05-23T11:13:15.020Z,23.10
2019-05-23T11:15:44.607Z,23.30
2019-05-23T11:18:14.513Z,23.40
2019-05-23T11:20:44.229Z,23.40
2019-05-23T11:23:17.130Z,23.40
2019-05-23T11:25:46.869Z,23.40
2019-05-23T11:28:17.351Z,23.30
2019-05-23T11:30:48.509Z,23.40
2019-05-23T11:33:19.132Z,23.50
2019-05-23T11:35:48.622Z,23.50
2019-05-23T11:38:18.337Z,23.80
2019-05-23T11:40:50.741Z,23.90
2019-05-23T11:43:23.929Z,23.90
2019-05-23T11:46:00.576Z,23.70
2019-05-23T11:48:29.955Z,23.70
2019-05-23T11:50:59.653Z,23.70
2019-05-23T11:53:29.399Z,23.40
2019-05-23T11:56:02.294Z,23.20
2019-05-23T11:58:32.842Z,23.20
2019-05-23T12:01:20.955Z,23.20
2019-05-23T12:03:48.561Z,23.20
2019-05-23T12:06:18.955Z,23.10
2019-05-23T12:08:48.470Z,23.20
2019-05-23T12:11:18.462Z,23.40
2019-05-23T12:13:47.915Z,23.40
2019-05-23T12:16:17.899Z,23.50
2019-05-23T12:18:47.428Z,23.60
2019-05-23T12:21:17.183Z,23.60
2019-05-23T12:23:46.793Z,23.50
2019-05-23T12:26:16.228Z,23.60
2019-05-23T12:28:45.967Z,23.90
2019-05-23T12:31:15.499Z,24.30
2019-05-23T12:33:45.197Z,24.40
2019-05-23T12:36:15.235Z,24.50
2019-05-23T12:38:44.765Z,24.40
2019-05-23T12:41:16.021Z,24.30
2019-05-23T12:43:45.828Z,24.30
2019-05-23T12:46:15.290Z,24.20
2019-05-23T12:48:49.340Z,23.90
2019-05-23T12:51:20.490Z,23.70
2019-05-23T12:53:50.038Z,23.70
2019-05-23T12:56:19.706Z,23.70
2019-05-23T12:58:49.237Z,23.60
2019-05-23T13:01:18.810Z,23.50
2019-05-23T13:03:49.339Z,23.50
2019-05-23T13:06:18.939Z,23.30
2019-05-23T13:08:48.404Z,23.20
2019-05-23T13:11:17.905Z,23.30
2019-05-23T13:13:47.385Z,23.30
2019-05-23T13:16:16.977Z,23.40
2019-05-23T13:18:46.360Z,23.40
2019-05-23T13:21:16.068Z,23.40
2019-05-23T13:23:45.673Z,23.50
2019-05-23T13:26:15.351Z,23.50
2019-05-23T13:28:45.130Z,23.30
2019-05-23T13:31:14.609Z,23.40
2019-05-23T13:33:44.271Z,23.40
2019-05-23T13:36:13.858Z,23.30
2019-05-23T13:38:43.545Z,23.50
2019-05-23T13:41:25.114Z,23.70
2019-05-23T13:43:56.311Z,23.90
2019-05-23T13:46:25.943Z,24.30
2019-05-23T13:48:56.595Z,24.40
2019-05-23T13:51:26.235Z,24.40
2019-05-23T13:53:57.791Z,24.30
2019-05-23T13:56:27.315Z,24.40
2019-05-23T13:58:57.291Z,24.50
2019-05-23T14:01:27.085Z,24.60
2019-05-23T14:03:56.674Z,24.60
2019-05-23T14:06:26.286Z,24.70
2019-05-23T14:08:55.782Z,24.60
2019-05-23T14:11:25.401Z,24.40
2019-05-23T14:14:00.293Z,24.20
2019-05-23T14:16:27.812Z,24.00
2019-05-23T14:18:57.344Z,23.90
2019-05-23T14:21:28.505Z,24.00
2019-05-23T14:23:59.011Z,24.20
2019-05-23T14:26:30.162Z,24.40
2019-05-23T14:29:00.108Z,24.50
2019-05-23T14:31:31.277Z,24.40
2019-05-23T14:34:02.360Z,24.20
2019-05-23T14:36:42.630Z,24.00
2019-05-23T14:39:15.430Z,23.90
2019-05-23T14:41:46.526Z,23.90
2019-05-23T14:44:16.527Z,23.90
2019-05-23T14:46:47.892Z,23.70
2019-05-23T14:49:19.200Z,23.90
2019-05-23T14:51:51.383Z,24.00
2019-05-23T14:54:31.681Z,24.30
2019-05-23T14:57:01.233Z,24.40
2019-05-23T14:59:31.148Z,24.20
2019-05-23T15:02:00.813Z,24.00
2019-05-23T15:04:30.406Z,23.90
2019-05-23T15:06:59.849Z,23.80
2019-05-23T15:09:29.328Z,23.80
2019-05-23T15:11:58.773Z,23.80
2019-05-23T15:14:28.544Z,23.70
2019-05-23T15:16:58.061Z,23.70
2019-05-23T15:19:41.815Z,23.80
2019-05-23T15:21:58.813Z,23.70
2019-05-23T15:24:28.934Z,23.70
2019-05-23T15:26:58.668Z,23.60
2019-05-23T15:29:29.136Z,23.60
2019-05-23T15:32:02.804Z,23.70
2019-05-23T15:34:30.306Z,23.50
2019-05-23T15:37:00.731Z,23.50
2019-05-23T15:39:30.647Z,23.40
2019-05-23T15:42:00.155Z,23.40
2019-05-23T15:44:30.525Z,23.50
2019-05-23T15:47:00.582Z,23.60
2019-05-23T15:49:30.250Z,23.50
2019-05-23T15:52:01.499Z,23.40
2019-05-23T15:54:39.362Z,23.30
2019-05-23T15:57:16.826Z,23.20
2019-05-23T15:59:48.245Z,23.00
2019-05-23T16:02:19.790Z,23.00
2019-05-23T16:04:50.416Z,23.00
2019-05-23T16:07:20.398Z,23.00
2019-05-23T16:09:49.977Z,22.90
2019-05-23T16:12:19.554Z,22.80
2019-05-23T16:14:49.031Z,22.70
2019-05-23T16:17:18.983Z,22.70
2019-05-23T16:19:48.444Z,22.70
2019-05-23T16:22:18.055Z,22.60
2019-05-23T16:24:47.629Z,22.60
2019-05-23T16:27:18.286Z,22.70
2019-05-23T16:29:50.580Z,22.80
2019-05-23T16:32:20.419Z,22.90
2019-05-23T16:34:49.844Z,22.80
2019-05-23T16:37:19.466Z,22.70
2019-05-23T16:39:50.201Z,22.50
2019-05-23T16:42:21.508Z,22.20
2019-05-23T16:44:52.167Z,22.00
2019-05-23T16:47:22.033Z,21.80
2019-05-23T16:49:51.584Z,21.80
2019-05-23T16:52:21.122Z,21.80
2019-05-23T16:54:53.395Z,21.90
2019-05-23T16:57:37.832Z,21.90
2019-05-23T17:00:12.203Z,21.80
2019-05-23T17:02:43.467Z,21.80
2019-05-23T17:05:31.465Z,21.70
2019-05-23T17:08:14.059Z,21.70
2019-05-23T17:10:45.179Z,21.70
2019-05-23T17:13:16.427Z,21.70
2019-05-23T17:15:53.744Z,21.70
2019-05-23T17:18:40.287Z,21.60
2019-05-23T17:21:11.508Z,21.50
2019-05-23T17:23:54.602Z,21.50
2019-05-23T17:26:25.742Z,21.30
2019-05-23T17:29:00.126Z,21.20
2019-05-23T17:31:34.196Z,21.20
2019-05-23T17:34:04.274Z,21.10
2019-05-23T17:36:33.922Z,21.00
2019-05-23T17:39:09.419Z,21.00
2019-05-23T17:41:40.052Z,21.00
2019-05-23T17:44:09.555Z,21.00
2019-05-23T17:46:39.104Z,21.00
2019-05-23T17:49:08.740Z,21.00
2019-05-23T17:51:38.205Z,20.90
2019-05-23T17:54:08.339Z,20.90
2019-05-23T17:56:38.073Z,20.90
2019-05-23T17:59:07.507Z,20.80
2019-05-23T18:01:37.367Z,20.70
2019-05-23T18:04:08.605Z,20.60
2019-05-23T18:06:38.626Z,20.50
2019-05-23T18:09:09.570Z,20.50
2019-05-23T18:11:39.247Z,20.50
2019-05-23T18:18:10.915Z,20.50
2019-05-23T18:21:22.656Z,20.40
2019-05-23T18:32:17.757Z,19.70
2019-05-23T18:34:47.272Z,19.40
2019-05-23T18:37:16.899Z,19.20
2019-05-23T18:39:46.574Z,19.10
2019-05-23T18:42:16.754Z,19.00
2019-05-23T18:52:10.922Z,18.70
2019-05-23T18:55:08.220Z,18.40
2019-05-23T18:57:46.815Z,18.30
2019-05-23T19:07:54.745Z,17.80
2019-05-23T19:10:24.254Z,17.70
2019-05-23T19:12:53.802Z,17.50
2019-05-23T19:15:23.480Z,17.50
2019-05-23T19:17:52.949Z,17.40
2019-05-23T19:20:22.558Z,17.30
2019-05-23T19:22:52.170Z,17.30
2019-05-23T19:25:22.699Z,17.20
2019-05-23T19:27:52.418Z,17.10
2019-05-23T19:30:22.589Z,17.10
2019-05-23T19:32:52.852Z,17.00
2019-05-23T19:35:22.730Z,17.00
2019-05-23T19:37:52.298Z,16.90
2019-05-23T19:40:22.014Z,16.80
2019-05-23T19:42:51.467Z,16.70
2019-05-23T19:45:21.172Z,16.60
2019-05-23T19:47:51.033Z,16.50
2019-05-23T19:50:20.593Z,16.40
2019-05-23T19:52:50.111Z,16.20
2019-05-23T19:55:19.658Z,16.10
2019-05-23T19:57:49.342Z,16.00
2019-05-23T20:00:20.841Z,16.00
2019-05-23T20:02:57.253Z,15.90
2019-05-23T20:05:31.807Z,15.80
2019-05-23T20:08:01.315Z,15.70
2019-05-23T20:10:32.550Z,15.70
2019-05-23T20:13:02.022Z,15.60
2019-05-23T20:15:32.114Z,15.50
2019-05-23T20:18:02.200Z,15.50
2019-05-23T20:20:33.030Z,15.40
2019-05-23T20:23:02.649Z,15.40
2019-05-23T20:25:32.499Z,15.30
2019-05-23T20:28:01.961Z,15.30
2019-05-23T20:30:43.768Z,15.20
2019-05-23T20:33:13.744Z,15.20
2019-05-23T20:35:43.258Z,15.10
2019-05-23T20:38:12.792Z,15.10
2019-05-23T20:40:42.511Z,15.10
2019-05-23T20:43:12.464Z,15.00
2019-05-23T20:45:42.171Z,14.90
2019-05-23T20:48:11.759Z,14.90
2019-05-23T20:50:41.216Z,14.90
2019-05-23T20:53:10.794Z,14.80
2019-05-23T20:55:40.306Z,14.80
2019-05-23T20:58:12.525Z,14.80
2019-05-23T21:00:49.638Z,14.70
2019-05-23T21:03:20.778Z,14.60
2019-05-23T21:05:50.334Z,14.50
2019-05-23T21:08:19.846Z,14.50
2019-05-23T21:10:49.884Z,14.40
2019-05-23T21:13:20.355Z,14.30
2019-05-23T21:15:50.147Z,14.20
2019-05-23T21:18:19.664Z,14.20
2019-05-23T21:20:49.106Z,14.20
2019-05-23T21:23:18.793Z,14.10
2019-05-23T21:25:49.899Z,14.10
2019-05-23T21:28:19.423Z,14.00
2019-05-23T21:30:49.687Z,14.00
2019-05-23T21:33:19.200Z,13.90
2019-05-23T21:35:48.754Z,13.80
2019-05-23T21:38:18.260Z,13.80
2019-05-23T21:40:47.799Z,13.70
2019-05-23T21:43:17.398Z,13.60
2019-05-23T21:49:10.592Z,13.50
2019-05-23T21:51:40.199Z,13.30
2019-05-23T21:54:10.591Z,13.30
2019-05-23T21:56:40.027Z,13.20
2019-05-23T21:59:09.498Z,13.20
2019-05-23T22:01:41.045Z,13.10
2019-05-23T22:04:15.423Z,13.00
2019-05-23T22:06:46.978Z,13.00
2019-05-23T22:09:16.439Z,12.90
2019-05-23T22:11:46.017Z,12.90
2019-05-23T22:14:15.708Z,12.80
2019-05-23T22:16:45.249Z,12.70
2019-05-23T22:19:16.647Z,12.70
2019-05-23T22:21:46.332Z,12.70
2019-05-23T22:24:16.123Z,12.60
2019-05-23T22:26:46.688Z,12.60
2019-05-23T22:29:16.673Z,12.50
2019-05-23T22:31:46.294Z,12.50
2019-05-23T22:34:29.519Z,12.40
2019-05-23T22:36:59.129Z,12.40
2019-05-23T22:39:29.601Z,12.40
2019-05-23T22:41:59.120Z,12.30
2019-05-23T22:44:28.700Z,12.30
2019-05-23T22:46:58.509Z,12.20
2019-05-23T22:49:29.724Z,12.20
2019-05-23T22:51:59.084Z,12.20
2019-05-23T22:54:28.639Z,12.20
2019-05-23T22:56:58.071Z,12.10
2019-05-23T22:59:27.600Z,12.10
2019-05-23T23:01:57.034Z,12.10
2019-05-23T23:04:26.525Z,12.10
2019-05-23T23:06:56.018Z,12.00
2019-05-23T23:09:26.586Z,11.90
2019-05-23T23:11:56.779Z,11.90
2019-05-23T23:14:26.216Z,11.90
2019-05-23T23:16:55.910Z,11.80
2019-05-23T23:19:25.350Z,11.70
2019-05-23T23:21:54.818Z,11.70
2019-05-23T23:24:24.267Z,11.60
2019-05-23T23:26:53.782Z,11.60
2019-05-23T23:29:23.310Z,11.60
2019-05-23T23:31:52.854Z,11.50
2019-05-23T23:34:22.297Z,11.50
2019-05-23T23:36:51.770Z,11.50
2019-05-23T23:39:21.664Z,11.40
2019-05-23T23:41:51.118Z,11.40
2019-05-23T23:44:22.078Z,11.40
2019-05-23T23:47:09.420Z,11.40
2019-05-23T23:49:56.752Z,11.30
2019-05-23T23:52:44.438Z,11.30
2019-05-23T23:55:32.623Z,11.30
2019-05-23T23:58:01.498Z,11.20
